createdAt,value
2022-09-27T00:01:07.837Z,75137.56
2022-09-27T00:03:35.226Z,75135.66
2022-09-27T00:06:23.266Z,75133.72
2022-09-27T00:08:50.185Z,75143.34
2022-09-27T00:11:27.717Z,75141.44
2022-09-27T00:13:56.666Z,75149.13
2022-09-27T00:16:26.346Z,75153.00
2022-09-27T00:18:53.145Z,75158.78
2022-09-27T00:21:20.023Z,75168.41
2022-09-27T00:23:46.887Z,75172.25
2022-09-27T00:26:14.264Z,75176.09
2022-09-27T00:28:41.520Z,75176.09
2022-09-27T00:31:21.209Z,75178.03
2022-09-27T00:33:50.436Z,75172.25
2022-09-27T00:36:18.942Z,75179.94
2022-09-27T00:38:46.059Z,75187.66
2022-09-27T00:41:25.991Z,75183.81
2022-09-27T00:43:56.231Z,75191.50
2022-09-27T00:46:35.017Z,75199.22
2022-09-27T00:49:13.546Z,75191.50
2022-09-27T00:51:42.829Z,75187.66
2022-09-27T00:54:12.806Z,75195.38
2022-09-27T00:56:40.879Z,75197.28
2022-09-27T00:59:14.377Z,75195.38
2022-09-27T01:01:41.547Z,75179.94
2022-09-27T01:04:15.048Z,75179.94
2022-09-27T01:06:41.965Z,75178.03
2022-09-27T01:09:11.128Z,75172.25
2022-09-27T01:11:59.442Z,75176.09
2022-09-27T01:14:46.076Z,75179.94
2022-09-27T01:17:31.490Z,75166.47
2022-09-27T01:20:13.920Z,75153.00
2022-09-27T01:22:59.324Z,75149.13
2022-09-27T01:25:51.184Z,75145.28
2022-09-27T01:28:54.011Z,75145.28
2022-09-27T01:31:20.873Z,75135.66
2022-09-27T01:34:09.570Z,75133.72
2022-09-27T01:36:46.120Z,75137.56
2022-09-27T01:39:50.102Z,75124.09
2022-09-27T01:42:50.381Z,75112.53
2022-09-27T01:45:38.715Z,75106.75
2022-09-27T01:48:34.333Z,75095.19
2022-09-27T01:51:13.777Z,75102.91
2022-09-27T01:53:53.784Z,75100.97
2022-09-27T01:56:46.493Z,75097.13
2022-09-27T01:59:31.137Z,75091.34
2022-09-27T02:02:12.277Z,75093.28
2022-09-27T02:05:06.846Z,75099.06
2022-09-27T02:08:07.758Z,75106.75
2022-09-27T02:10:41.168Z,75114.47
2022-09-27T02:13:29.695Z,75114.47
2022-09-27T02:16:23.006Z,75116.38
2022-09-27T02:19:02.269Z,75114.47
2022-09-27T02:21:56.089Z,75118.31
2022-09-27T02:24:30.690Z,75126.03
2022-09-27T02:27:08.383Z,75129.88
2022-09-27T02:29:45.772Z,75129.88
2022-09-27T02:32:12.776Z,75126.03
2022-09-27T02:34:41.114Z,75131.81
2022-09-27T02:37:08.169Z,75129.88
2022-09-27T02:39:37.115Z,75137.56
2022-09-27T02:42:07.853Z,75135.66
2022-09-27T02:44:37.154Z,75141.44
2022-09-27T02:47:24.268Z,75141.44
2022-09-27T02:50:17.219Z,75133.72
2022-09-27T02:53:17.180Z,75129.88
2022-09-27T02:56:27.855Z,75120.25
2022-09-27T02:59:35.265Z,75116.38
2022-09-27T03:02:55.608Z,75108.69
2022-09-27T03:05:45.986Z,75099.06
2022-09-27T03:08:14.306Z,75097.13
2022-09-27T03:10:41.162Z,75093.28
2022-09-27T03:13:08.258Z,75091.34
2022-09-27T03:15:35.898Z,75091.34
2022-09-27T03:18:03.722Z,75085.56
2022-09-27T03:20:31.552Z,75083.66
2022-09-27T03:23:07.945Z,75079.78
2022-09-27T03:25:34.689Z,75072.09
2022-09-27T03:28:02.356Z,75072.09
2022-09-27T03:30:29.470Z,75064.38
2022-09-27T03:32:56.218Z,75054.75
2022-09-27T03:35:43.196Z,75050.91
2022-09-27T03:38:11.241Z,75048.97
2022-09-27T03:40:39.061Z,75041.28
2022-09-27T03:43:10.010Z,75033.56
2022-09-27T03:45:37.107Z,75029.72
2022-09-27T03:48:07.338Z,75023.94
2022-09-27T03:50:34.505Z,75016.22
2022-09-27T03:53:01.464Z,75022.00
2022-09-27T03:55:28.203Z,75020.09
2022-09-27T03:57:55.405Z,75016.22
2022-09-27T04:00:22.825Z,75006.59
2022-09-27T04:02:49.739Z,75000.81
2022-09-27T04:05:22.461Z,74993.13
2022-09-27T04:07:49.849Z,74989.25
2022-09-27T04:10:18.678Z,74987.34
2022-09-27T04:12:45.916Z,74985.41
2022-09-27T04:15:13.122Z,74987.34
2022-09-27T04:17:49.229Z,74991.19
2022-09-27T04:20:34.910Z,74989.25
2022-09-27T04:23:07.245Z,74985.41
2022-09-27T04:25:36.599Z,74998.91
2022-09-27T04:28:18.585Z,74996.97
2022-09-27T04:30:46.933Z,74991.19
2022-09-27T04:33:33.268Z,74993.13
2022-09-27T04:36:25.954Z,74998.91
2022-09-27T04:39:02.870Z,74991.19
2022-09-27T04:41:30.254Z,74991.19
2022-09-27T04:43:59.623Z,74983.47
2022-09-27T04:46:31.902Z,74973.84
2022-09-27T04:49:01.870Z,74968.06
2022-09-27T04:51:30.740Z,74971.94
2022-09-27T04:53:58.312Z,74964.22
2022-09-27T04:56:40.048Z,74962.28
2022-09-27T04:59:10.741Z,74960.38
2022-09-27T05:01:40.134Z,74956.53
2022-09-27T05:04:18.183Z,74950.75
2022-09-27T05:06:53.696Z,74948.81
2022-09-27T05:09:33.013Z,74941.09
2022-09-27T05:12:00.997Z,74933.41
2022-09-27T05:14:27.720Z,74931.47
2022-09-27T05:17:07.949Z,74921.84
2022-09-27T05:20:01.040Z,74914.16
2022-09-27T05:22:48.070Z,74910.28
2022-09-27T05:25:15.044Z,74904.50
2022-09-27T05:27:41.854Z,74894.88
2022-09-27T05:30:11.128Z,74887.19
2022-09-27T05:32:50.995Z,74883.31
2022-09-27T05:35:47.503Z,74877.56
2022-09-27T05:38:14.444Z,74866.00
2022-09-27T05:40:45.501Z,74866.00
2022-09-27T05:43:12.503Z,74856.38
2022-09-27T05:45:39.539Z,74848.66
2022-09-27T05:48:07.169Z,74840.97
2022-09-27T05:50:42.443Z,74837.09
2022-09-27T05:53:10.456Z,74831.31
2022-09-27T05:55:38.104Z,74827.47
2022-09-27T05:58:08.362Z,74817.84
2022-09-27T06:00:43.804Z,74821.69
2022-09-27T06:03:30.556Z,74806.28
2022-09-27T06:06:29.588Z,74806.28
2022-09-27T06:08:57.892Z,74800.50
2022-09-27T06:11:27.588Z,74798.59
2022-09-27T06:13:54.635Z,74794.72
2022-09-27T06:16:22.415Z,74794.72
2022-09-27T06:18:49.232Z,74783.16
2022-09-27T06:21:16.978Z,74779.31
2022-09-27T06:23:54.221Z,74787.03
2022-09-27T06:26:28.456Z,74775.47
2022-09-27T06:29:08.607Z,74769.69
2022-09-27T06:31:40.052Z,74760.06
2022-09-27T06:34:36.625Z,74752.34
2022-09-27T06:37:04.245Z,74744.66
2022-09-27T06:39:33.350Z,74740.81
2022-09-27T06:42:23.679Z,74731.16
2022-09-27T06:45:09.039Z,74723.47
2022-09-27T06:48:16.154Z,74719.63
2022-09-27T06:51:06.047Z,74711.91
2022-09-27T06:53:33.225Z,74706.13
2022-09-27T06:56:01.306Z,74694.56
2022-09-27T06:58:52.199Z,74690.72
2022-09-27T07:01:37.647Z,74692.66
2022-09-27T07:04:25.341Z,74696.50
2022-09-27T07:07:12.938Z,74694.56
2022-09-27T07:09:44.663Z,74690.72
2022-09-27T07:12:13.464Z,74690.72
2022-09-27T07:14:41.101Z,74679.16
2022-09-27T07:17:13.551Z,74679.16
2022-09-27T07:19:43.787Z,74688.81
2022-09-27T07:22:12.044Z,74686.88
2022-09-27T07:24:40.469Z,74702.28
2022-09-27T07:27:07.417Z,74690.72
2022-09-27T07:29:34.323Z,74698.44
2022-09-27T07:32:01.880Z,74694.56
2022-09-27T07:34:28.745Z,74683.03
2022-09-27T07:37:05.520Z,74679.16
2022-09-27T07:39:37.098Z,74671.47
2022-09-27T07:42:06.255Z,74663.75
2022-09-27T07:44:34.758Z,74659.91
2022-09-27T07:47:25.798Z,74661.84
2022-09-27T07:50:05.286Z,74661.84
2022-09-27T07:52:57.812Z,74656.06
2022-09-27T07:55:44.528Z,74656.06
2022-09-27T07:58:13.751Z,74661.84
2022-09-27T08:00:41.243Z,74663.75
2022-09-27T08:03:15.396Z,74667.63
2022-09-27T08:05:43.923Z,74671.47
2022-09-27T08:08:10.974Z,74671.47
2022-09-27T08:10:39.867Z,74671.47
2022-09-27T08:13:06.654Z,74669.53
2022-09-27T08:15:39.168Z,74679.16
2022-09-27T08:18:09.474Z,74679.16
2022-09-27T08:20:59.271Z,74677.25
2022-09-27T08:23:48.763Z,74679.16
2022-09-27T08:26:44.825Z,74684.94
2022-09-27T08:29:19.501Z,74686.88
2022-09-27T08:31:52.421Z,74683.03
2022-09-27T08:34:19.613Z,74690.72
2022-09-27T08:36:46.305Z,74690.72
2022-09-27T08:39:13.273Z,74706.13
2022-09-27T08:41:49.704Z,74706.13
2022-09-27T08:44:54.449Z,74711.91
2022-09-27T08:47:32.896Z,74711.91
2022-09-27T08:50:19.043Z,74715.75
2022-09-27T08:52:53.607Z,74706.13
2022-09-27T08:55:30.481Z,74715.75
2022-09-27T08:57:59.065Z,74721.53
2022-09-27T09:00:29.769Z,74740.81
2022-09-27T09:02:58.947Z,74775.47
2022-09-27T09:05:34.799Z,74798.59
2022-09-27T09:08:27.605Z,74825.53
2022-09-27T09:11:32.835Z,74844.81
2022-09-27T09:14:34.063Z,74844.81
2022-09-27T09:17:36.663Z,74844.81
2022-09-27T09:20:50.705Z,74840.97
2022-09-27T09:23:24.631Z,74829.41
2022-09-27T09:26:38.785Z,74829.41
2022-09-27T09:29:39.045Z,74825.53
2022-09-27T09:32:41.355Z,74817.84
2022-09-27T09:35:15.809Z,74817.84
2022-09-27T09:37:53.193Z,74804.34
2022-09-27T09:40:26.733Z,74794.72
2022-09-27T09:43:02.790Z,74787.03
2022-09-27T09:45:48.086Z,74796.66
2022-09-27T09:48:49.902Z,74783.16
2022-09-27T09:51:29.252Z,74763.91
2022-09-27T09:54:06.683Z,74754.28
2022-09-27T09:56:45.779Z,74771.63
2022-09-27T09:59:18.932Z,74765.84
2022-09-27T10:01:49.237Z,74777.41
2022-09-27T10:04:21.036Z,74748.50
2022-09-27T10:06:49.488Z,74736.94
2022-09-27T10:09:21.485Z,74736.94
2022-09-27T10:12:09.905Z,74744.66
2022-09-27T10:14:38.121Z,74746.56
2022-09-27T10:17:11.446Z,74721.53
2022-09-27T10:19:39.637Z,74711.91
2022-09-27T10:22:23.418Z,74690.72
2022-09-27T10:25:06.801Z,74706.13
2022-09-27T10:27:56.122Z,74679.16
2022-09-27T10:30:35.484Z,74708.06
2022-09-27T10:33:19.159Z,74713.84
2022-09-27T10:36:02.219Z,74667.63
2022-09-27T10:38:35.868Z,74623.31
2022-09-27T10:41:32.796Z,74613.69
2022-09-27T10:44:16.270Z,74609.84
2022-09-27T10:46:49.655Z,74575.16
2022-09-27T10:49:41.823Z,74580.94
2022-09-27T10:52:22.728Z,74552.06
2022-09-27T10:55:16.654Z,74604.06
2022-09-27T10:57:50.062Z,74548.22
2022-09-27T11:00:24.297Z,74571.31
2022-09-27T11:02:57.612Z,74528.94
2022-09-27T11:05:28.021Z,74442.28
2022-09-27T11:07:57.104Z,74465.41
2022-09-27T11:10:37.999Z,74484.66
2022-09-27T11:13:15.122Z,74444.22
2022-09-27T11:16:11.538Z,74421.09
2022-09-27T11:18:52.738Z,74424.94
2022-09-27T11:21:50.470Z,74428.81
2022-09-27T11:24:58.250Z,74459.63
2022-09-27T11:27:41.189Z,74494.28
2022-09-27T11:30:10.993Z,74498.13
2022-09-27T11:33:50.570Z,74528.94
2022-09-27T11:36:34.414Z,74496.22
2022-09-27T11:39:02.970Z,74455.75
2022-09-27T11:41:35.953Z,74525.09
2022-09-27T11:44:25.875Z,74519.31
2022-09-27T11:47:03.484Z,74478.88
2022-09-27T11:49:55.382Z,74496.22
2022-09-27T11:52:27.655Z,74532.81
2022-09-27T11:54:57.087Z,74540.50
2022-09-27T11:57:31.720Z,74555.91
2022-09-27T12:00:09.824Z,74555.91
2022-09-27T12:03:08.272Z,74563.63
2022-09-27T12:05:40.808Z,74557.84
2022-09-27T12:08:23.110Z,74590.56
2022-09-27T12:11:15.153Z,74598.28
2022-09-27T12:13:59.294Z,74559.75
2022-09-27T12:16:27.848Z,74569.41
2022-09-27T12:18:55.471Z,74550.13
2022-09-27T12:21:38.815Z,74527.03
2022-09-27T12:24:06.005Z,74532.81
2022-09-27T12:26:47.451Z,74555.91
2022-09-27T12:29:30.470Z,74544.34
2022-09-27T12:32:18.414Z,74536.66
2022-09-27T12:34:54.480Z,74513.53
2022-09-27T12:37:29.073Z,74494.28
2022-09-27T12:40:07.827Z,74521.25
2022-09-27T12:42:50.693Z,74505.84
2022-09-27T12:46:03.699Z,74534.72
2022-09-27T12:49:05.281Z,74577.09
2022-09-27T12:51:58.516Z,74542.44
2022-09-27T12:54:57.458Z,74552.06
2022-09-27T12:57:48.229Z,74563.63
2022-09-27T13:00:51.825Z,74542.44
2022-09-27T13:03:35.912Z,74525.09
2022-09-27T13:06:34.437Z,74513.53
2022-09-27T13:09:10.894Z,74496.22
2022-09-27T13:11:58.579Z,74513.53
2022-09-27T13:14:28.030Z,74494.28
2022-09-27T13:16:54.866Z,74507.75
2022-09-27T13:19:39.637Z,74513.53
2022-09-27T13:22:31.050Z,74498.13
2022-09-27T13:26:15.072Z,74498.13
2022-09-27T13:28:48.806Z,74478.88
2022-09-27T13:31:54.862Z,74498.13
2022-09-27T13:34:51.915Z,74540.50
2022-09-27T13:37:48.860Z,74517.38
2022-09-27T13:40:37.572Z,74513.53
2022-09-27T13:44:05.157Z,74548.22
2022-09-27T13:47:00.988Z,74582.88
2022-09-27T13:49:39.482Z,74613.69
2022-09-27T13:52:36.405Z,74590.56
2022-09-27T13:55:38.293Z,74609.84
2022-09-27T13:58:16.875Z,74627.16
2022-09-27T14:00:47.463Z,74621.38
2022-09-27T14:03:52.957Z,74604.06
2022-09-27T14:06:26.421Z,74640.66
2022-09-27T14:08:57.867Z,74644.50
2022-09-27T14:11:30.685Z,74631.03
2022-09-27T14:13:59.486Z,74657.97
2022-09-27T14:16:36.512Z,74654.13
2022-09-27T14:19:03.879Z,74656.06
2022-09-27T14:21:39.621Z,74642.56
2022-09-27T14:24:24.531Z,74652.22
2022-09-27T14:27:04.578Z,74644.50
2022-09-27T14:29:34.435Z,74640.66
2022-09-27T14:32:12.222Z,74625.25
2022-09-27T14:35:05.969Z,74663.75
2022-09-27T14:37:33.169Z,74644.50
2022-09-27T14:40:19.161Z,74652.22
2022-09-27T14:42:46.156Z,74634.88
2022-09-27T14:45:15.582Z,74656.06
2022-09-27T14:47:47.338Z,74652.22
2022-09-27T14:50:33.389Z,74640.66
2022-09-27T14:53:01.817Z,74659.91
2022-09-27T14:55:30.979Z,74663.75
2022-09-27T14:58:00.614Z,74659.91
2022-09-27T15:00:31.343Z,74673.41
2022-09-27T15:03:04.943Z,74673.41
2022-09-27T15:05:34.461Z,74673.41
2022-09-27T15:08:06.463Z,74688.81
2022-09-27T15:10:36.667Z,74694.56
2022-09-27T15:13:05.361Z,74679.16
2022-09-27T15:15:39.124Z,74702.28
2022-09-27T15:18:41.604Z,74690.72
2022-09-27T15:21:10.741Z,74686.88
2022-09-27T15:23:45.118Z,74688.81
2022-09-27T15:26:25.949Z,74706.13
2022-09-27T15:28:53.498Z,74729.25
2022-09-27T15:31:35.283Z,74733.09
2022-09-27T15:34:06.751Z,74742.72
2022-09-27T15:36:49.922Z,74763.91
2022-09-27T15:39:19.445Z,74775.47
2022-09-27T15:42:10.274Z,74787.03
2022-09-27T15:44:43.261Z,74800.50
2022-09-27T15:47:32.091Z,74802.44
2022-09-27T15:49:59.599Z,74814.00
2022-09-27T15:52:58.170Z,74821.69
2022-09-27T15:55:29.794Z,74825.53
2022-09-27T15:58:02.030Z,74833.25
2022-09-27T16:00:29.898Z,74840.97
2022-09-27T16:02:56.741Z,74846.72
2022-09-27T16:05:24.213Z,74852.50
2022-09-27T16:07:51.654Z,74866.00
2022-09-27T16:10:26.167Z,74875.63
2022-09-27T16:12:52.955Z,74879.47
2022-09-27T16:15:19.603Z,74883.31
2022-09-27T16:17:46.222Z,74887.19
2022-09-27T16:20:23.183Z,74896.81
2022-09-27T16:22:50.745Z,74894.88
2022-09-27T16:25:17.864Z,74900.66
2022-09-27T16:27:44.894Z,74912.22
2022-09-27T16:30:12.386Z,74921.84
2022-09-27T16:32:47.107Z,74925.69
2022-09-27T16:35:16.421Z,74929.56
2022-09-27T16:37:43.802Z,74935.34
2022-09-27T16:40:13.239Z,74933.41
2022-09-27T16:42:41.248Z,74941.09
2022-09-27T16:45:11.134Z,74952.66
2022-09-27T16:47:39.622Z,74954.59
2022-09-27T16:50:25.349Z,74952.66
2022-09-27T16:52:52.498Z,74964.22
2022-09-27T16:55:20.847Z,74964.22
2022-09-27T16:57:48.326Z,74960.38
2022-09-27T17:00:18.613Z,74968.06
2022-09-27T17:02:48.595Z,74975.78
2022-09-27T17:05:16.103Z,74973.84
2022-09-27T17:07:42.814Z,74975.78
2022-09-27T17:10:09.773Z,74971.94
2022-09-27T17:12:36.783Z,74956.53
2022-09-27T17:15:04.361Z,74962.28
2022-09-27T17:17:30.965Z,74960.38
2022-09-27T17:19:57.699Z,74964.22
2022-09-27T17:22:24.995Z,74964.22
2022-09-27T17:24:52.355Z,74971.94
2022-09-27T17:27:21.014Z,74970.00
2022-09-27T17:29:50.640Z,74964.22
2022-09-27T17:32:17.502Z,74964.22
2022-09-27T17:34:44.660Z,74977.72
2022-09-27T17:37:11.318Z,74968.06
2022-09-27T17:39:38.220Z,74964.22
2022-09-27T17:42:05.491Z,74964.22
2022-09-27T17:44:32.577Z,74970.00
2022-09-27T17:47:17.894Z,74966.16
2022-09-27T17:50:03.054Z,74983.47
2022-09-27T17:52:31.000Z,74971.94
2022-09-27T17:54:58.686Z,74977.72
2022-09-27T17:57:25.791Z,74979.63
2022-09-27T17:59:53.642Z,74983.47
2022-09-27T18:02:21.322Z,74983.47
2022-09-27T18:04:48.126Z,74985.41
2022-09-27T18:07:14.768Z,74993.13
2022-09-27T18:09:41.948Z,74998.91
2022-09-27T18:12:08.825Z,75010.44
2022-09-27T18:14:36.618Z,75018.16
2022-09-27T18:17:03.636Z,75025.84
2022-09-27T18:19:30.330Z,75029.72
2022-09-27T18:21:56.977Z,75029.72
2022-09-27T18:24:24.785Z,75037.41
2022-09-27T18:26:51.411Z,75056.69
2022-09-27T18:29:18.935Z,75060.53
2022-09-27T18:31:48.890Z,75074.00
2022-09-27T18:34:17.650Z,75072.09
2022-09-27T18:36:44.822Z,75095.19
2022-09-27T18:39:19.001Z,75097.13
2022-09-27T18:41:48.578Z,75102.91
2022-09-27T18:44:16.419Z,75108.69
2022-09-27T18:46:43.374Z,75126.03
2022-09-27T18:49:12.707Z,75135.66
2022-09-27T18:51:43.759Z,75141.44
2022-09-27T18:54:22.273Z,75143.34
2022-09-27T18:56:50.635Z,75149.13
2022-09-27T18:59:17.721Z,75154.91
2022-09-27T19:01:45.843Z,75156.84
2022-09-27T19:04:20.469Z,75156.84
2022-09-27T19:06:50.278Z,75164.53
2022-09-27T19:09:17.319Z,75164.53
2022-09-27T19:11:44.290Z,75164.53
2022-09-27T19:14:15.804Z,75160.69
2022-09-27T19:16:42.561Z,75168.41
2022-09-27T19:19:09.603Z,75172.25
2022-09-27T19:21:36.222Z,75176.09
2022-09-27T19:24:02.927Z,75176.09
2022-09-27T19:26:29.739Z,75176.09
2022-09-27T19:28:57.663Z,75187.66
2022-09-27T19:31:29.592Z,75181.88
2022-09-27T19:34:00.144Z,75185.72
2022-09-27T19:36:28.308Z,75197.28
2022-09-27T19:38:58.293Z,75197.28
2022-09-27T19:41:25.375Z,75199.22
2022-09-27T19:43:52.875Z,75203.06
2022-09-27T19:46:20.968Z,75210.78
2022-09-27T19:48:49.307Z,75210.78
2022-09-27T19:51:18.904Z,75216.56
2022-09-27T19:53:46.287Z,75218.47
2022-09-27T19:56:14.313Z,75226.19
2022-09-27T19:58:42.563Z,75235.81
2022-09-27T20:01:11.802Z,75247.38
2022-09-27T20:03:43.760Z,75264.72
2022-09-27T20:06:13.367Z,75258.94
2022-09-27T20:08:41.123Z,75268.56
2022-09-27T20:11:10.733Z,75280.13
2022-09-27T20:13:38.126Z,75295.53
2022-09-27T20:16:09.446Z,75307.09
2022-09-27T20:18:47.474Z,75318.66
2022-09-27T20:21:15.161Z,75334.06
2022-09-27T20:23:42.138Z,75337.91
2022-09-27T20:26:11.188Z,75332.13
2022-09-27T20:28:45.860Z,75334.06
2022-09-27T20:31:18.287Z,75339.84
2022-09-27T20:33:46.884Z,75345.63
2022-09-27T20:36:16.370Z,75347.53
2022-09-27T20:38:45.414Z,75359.09
2022-09-27T20:41:16.551Z,75374.50
2022-09-27T20:43:43.766Z,75380.28
2022-09-27T20:46:16.276Z,75380.28
2022-09-27T20:48:44.498Z,75393.78
2022-09-27T20:51:16.284Z,75411.13
2022-09-27T20:53:45.108Z,75422.66
2022-09-27T20:56:22.607Z,75422.66
2022-09-27T20:58:51.464Z,75430.38
2022-09-27T21:01:19.813Z,75436.16
2022-09-27T21:03:46.794Z,75447.72
2022-09-27T21:06:16.308Z,75457.34
2022-09-27T21:08:43.189Z,75459.28
2022-09-27T21:11:13.107Z,75465.06
2022-09-27T21:13:41.112Z,75472.75
2022-09-27T21:16:14.369Z,75480.47
2022-09-27T21:18:42.084Z,75490.09
2022-09-27T21:21:11.608Z,75488.16
2022-09-27T21:23:44.111Z,75497.81
2022-09-27T21:26:15.919Z,75503.59
2022-09-27T21:28:44.984Z,75507.44
2022-09-27T21:31:16.657Z,75515.13
2022-09-27T21:33:49.042Z,75526.69
2022-09-27T21:36:16.149Z,75526.69
2022-09-27T21:38:43.296Z,75538.25
2022-09-27T21:41:12.682Z,75545.97
2022-09-27T21:43:42.489Z,75544.03
2022-09-27T21:46:11.572Z,75555.59
2022-09-27T21:48:40.571Z,75563.31
2022-09-27T21:51:18.705Z,75576.78
2022-09-27T21:53:51.304Z,75584.50
2022-09-27T21:56:19.066Z,75592.19
2022-09-27T21:58:46.539Z,75603.75
2022-09-27T22:01:18.306Z,75615.31
2022-09-27T22:03:46.573Z,75623.03
2022-09-27T22:06:31.460Z,75628.78
2022-09-27T22:08:59.706Z,75646.13
2022-09-27T22:11:36.629Z,75650.00
2022-09-27T22:14:06.905Z,75651.91
2022-09-27T22:16:33.801Z,75651.91
2022-09-27T22:19:00.675Z,75650.00
2022-09-27T22:21:30.074Z,75638.44
2022-09-27T22:24:07.236Z,75634.56
2022-09-27T22:26:37.198Z,75621.09
2022-09-27T22:29:04.999Z,75607.59
2022-09-27T22:31:31.997Z,75590.28
2022-09-27T22:34:01.210Z,75572.94
2022-09-27T22:36:29.105Z,75563.31
2022-09-27T22:38:56.543Z,75561.38
2022-09-27T22:41:23.849Z,75557.53
2022-09-27T22:43:53.461Z,75547.88
2022-09-27T22:46:21.990Z,75549.81
2022-09-27T22:48:49.778Z,75538.25
2022-09-27T22:51:17.573Z,75522.84
2022-09-27T22:53:44.796Z,75511.28
2022-09-27T22:56:15.922Z,75526.69
2022-09-27T22:58:44.145Z,75538.25
2022-09-27T23:01:13.261Z,75536.31
2022-09-27T23:03:40.264Z,75536.31
2022-09-27T23:06:07.484Z,75536.31
2022-09-27T23:08:36.287Z,75519.00
2022-09-27T23:11:08.485Z,75503.59
2022-09-27T23:13:37.810Z,75503.59
2022-09-27T23:16:06.974Z,75488.16
2022-09-27T23:18:34.433Z,75474.69
2022-09-27T23:21:03.378Z,75453.50
2022-09-27T23:23:35.286Z,75457.34
2022-09-27T23:26:04.528Z,75441.94
2022-09-27T23:28:32.319Z,75422.66
2022-09-27T23:31:08.500Z,75422.66
2022-09-27T23:33:41.466Z,75414.97
2022-09-27T23:36:10.711Z,75430.38
2022-09-27T23:38:40.275Z,75426.53
2022-09-27T23:41:08.384Z,75424.59
2022-09-27T23:43:36.382Z,75434.22
2022-09-27T23:46:07.502Z,75436.16
2022-09-27T23:48:35.481Z,75441.94
2022-09-27T23:51:03.927Z,75438.09
2022-09-27T23:53:30.838Z,75434.22
2022-09-27T23:56:03.064Z,75418.81
2022-09-27T23:58:33.745Z,75414.97
